createdAt,value
2023-04-10T00:01:12.648Z,100.00
2023-04-10T00:03:42.899Z,100.00
2023-04-10T00:06:11.054Z,100.00
2023-04-10T00:08:39.012Z,100.00
2023-04-10T00:11:07.169Z,100.00
2023-04-10T00:13:35.119Z,100.00
2023-04-10T00:16:03.385Z,100.00
2023-04-10T00:18:31.363Z,100.00
2023-04-10T00:21:00.720Z,100.00
2023-04-10T00:23:28.695Z,100.00
2023-04-10T00:25:56.639Z,100.00
2023-04-10T00:28:24.715Z,100.00
2023-04-10T00:30:52.795Z,100.00
2023-04-10T00:33:20.842Z,100.00
2023-04-10T00:35:48.876Z,100.00
2023-04-10T00:38:18.242Z,100.00
2023-04-10T00:40:46.387Z,100.00
2023-04-10T00:43:14.372Z,100.00
2023-04-10T00:45:42.624Z,100.00
2023-04-10T00:48:10.841Z,100.00
2023-04-10T00:50:39.009Z,100.00
2023-04-10T00:53:07.283Z,100.00
2023-04-10T00:55:37.106Z,100.00
2023-04-10T00:58:05.357Z,100.00
2023-04-10T01:00:33.384Z,100.00
2023-04-10T01:03:01.927Z,100.00
2023-04-10T01:05:48.072Z,100.00
2023-04-10T01:08:27.774Z,100.00
2023-04-10T01:11:06.147Z,100.00
2023-04-10T01:13:41.988Z,100.00
2023-04-10T01:16:15.740Z,100.00
2023-04-10T01:18:49.913Z,100.00
2023-04-10T01:21:19.047Z,100.00
2023-04-10T01:24:10.759Z,100.00
2023-04-10T01:26:57.985Z,100.00
2023-04-10T01:29:30.620Z,100.00
2023-04-10T01:32:03.970Z,100.00
2023-04-10T01:34:37.175Z,100.00
2023-04-10T01:37:13.355Z,100.00
2023-04-10T01:39:43.932Z,100.00
2023-04-10T01:42:15.207Z,100.00
2023-04-10T01:44:47.022Z,100.00
2023-04-10T01:47:16.515Z,100.00
2023-04-10T01:49:46.955Z,100.00
2023-04-10T01:52:16.174Z,100.00
2023-04-10T01:54:45.829Z,100.00
2023-04-10T01:57:15.507Z,100.00
2023-04-10T01:59:45.679Z,100.00
2023-04-10T02:02:13.658Z,100.00
2023-04-10T02:04:41.723Z,100.00
2023-04-10T02:07:15.750Z,100.00
2023-04-10T02:09:51.862Z,100.00
2023-04-10T02:12:24.909Z,100.00
2023-04-10T02:14:56.933Z,100.00
2023-04-10T02:17:28.860Z,100.00
2023-04-10T02:19:57.608Z,100.00
2023-04-10T02:22:27.138Z,100.00
2023-04-10T02:24:55.633Z,100.00
2023-04-10T02:27:33.792Z,100.00
2023-04-10T02:30:04.450Z,100.00
2023-04-10T02:32:33.355Z,100.00
2023-04-10T02:35:02.155Z,100.00
2023-04-10T02:37:30.244Z,100.00
2023-04-10T02:39:58.254Z,100.00
2023-04-10T02:42:26.194Z,100.00
2023-04-10T02:44:54.228Z,100.00
2023-04-10T02:47:23.992Z,100.00
2023-04-10T02:49:51.983Z,100.00
2023-04-10T02:52:19.951Z,100.00
2023-04-10T02:54:48.387Z,100.00
2023-04-10T02:57:17.651Z,100.00
2023-04-10T02:59:45.793Z,100.00
2023-04-10T03:02:13.879Z,100.00
2023-04-10T03:04:43.442Z,100.00
2023-04-10T03:07:11.493Z,100.00
2023-04-10T03:09:39.422Z,100.00
2023-04-10T03:12:07.427Z,100.00
2023-04-10T03:14:35.379Z,100.00
2023-04-10T03:17:03.649Z,100.00
2023-04-10T03:19:31.597Z,100.00
2023-04-10T03:22:00.926Z,100.00
2023-04-10T03:24:29.032Z,100.00
2023-04-10T03:26:57.793Z,100.00
2023-04-10T03:29:25.881Z,100.00
2023-04-10T03:31:53.860Z,100.00
2023-04-10T03:34:21.794Z,100.00
2023-04-10T03:36:49.692Z,100.00
2023-04-10T03:39:19.008Z,100.00
2023-04-10T03:41:46.873Z,100.00
2023-04-10T03:44:14.811Z,100.00
2023-04-10T03:46:42.822Z,100.00
2023-04-10T03:49:12.232Z,100.00
2023-04-10T03:51:40.243Z,100.00
2023-04-10T03:54:08.256Z,100.00
2023-04-10T03:56:37.647Z,100.00
2023-04-10T03:59:05.674Z,100.00
2023-04-10T04:01:34.101Z,100.00
2023-04-10T04:04:02.315Z,100.00
2023-04-10T04:06:31.239Z,100.00
2023-04-10T04:08:59.139Z,100.00
2023-04-10T04:11:27.837Z,100.00
2023-04-10T04:13:57.199Z,100.00
2023-04-10T04:16:25.490Z,100.00
2023-04-10T04:18:53.415Z,100.00
2023-04-10T04:21:21.323Z,100.00
2023-04-10T04:23:49.256Z,100.00
2023-04-10T04:26:17.236Z,100.00
2023-04-10T04:28:45.304Z,100.00
2023-04-10T04:31:14.623Z,100.00
2023-04-10T04:33:42.556Z,100.00
2023-04-10T04:36:10.556Z,100.00
2023-04-10T04:38:38.516Z,100.00
2023-04-10T04:41:06.962Z,100.00
2023-04-10T04:43:35.011Z,100.00
2023-04-10T04:46:03.523Z,100.00
2023-04-10T04:48:32.905Z,100.00
2023-04-10T04:51:00.829Z,100.00
2023-04-10T04:53:29.068Z,100.00
2023-04-10T04:55:58.645Z,100.00
2023-04-10T04:58:26.596Z,100.00
2023-04-10T05:00:55.196Z,100.00
2023-04-10T05:03:23.470Z,100.00
2023-04-10T05:05:53.045Z,100.00
2023-04-10T05:08:20.974Z,100.00
2023-04-10T05:10:49.845Z,100.00
2023-04-10T05:13:18.192Z,100.00
2023-04-10T05:15:46.522Z,100.00
2023-04-10T05:18:19.769Z,100.00
2023-04-10T05:20:48.057Z,100.00
2023-04-10T05:23:17.746Z,100.00
2023-04-10T05:25:46.048Z,100.00
2023-04-10T05:28:14.857Z,100.00
2023-04-10T05:30:42.864Z,100.00
2023-04-10T05:33:11.102Z,100.00
2023-04-10T05:35:39.324Z,100.00
2023-04-10T05:38:08.977Z,96.87
2023-04-10T05:40:38.351Z,94.20
2023-04-10T05:43:06.383Z,91.35
2023-04-10T05:45:34.567Z,88.82
2023-04-10T05:48:02.661Z,90.51
2023-04-10T05:50:30.795Z,89.22
2023-04-10T05:52:58.978Z,87.27
2023-04-10T05:55:27.035Z,82.67
2023-04-10T05:57:56.516Z,81.95
2023-04-10T06:00:24.846Z,80.63
2023-04-10T06:02:53.034Z,79.68
2023-04-10T06:05:24.356Z,80.41
2023-04-10T06:07:52.770Z,79.60
2023-04-10T06:10:21.333Z,78.29
2023-04-10T06:12:49.311Z,79.40
2023-04-10T06:15:21.647Z,83.58
2023-04-10T06:17:49.857Z,88.29
2023-04-10T06:20:20.552Z,91.25
2023-04-10T06:22:49.332Z,91.40
2023-04-10T06:25:18.036Z,91.91
2023-04-10T06:27:46.209Z,92.31
2023-04-10T06:30:14.340Z,92.12
2023-04-10T06:32:43.741Z,91.16
2023-04-10T06:35:13.119Z,90.45
2023-04-10T06:37:41.492Z,89.79
2023-04-10T06:40:11.818Z,89.95
2023-04-10T06:42:41.184Z,90.86
2023-04-10T06:45:11.661Z,91.76
2023-04-10T06:47:42.112Z,92.71
2023-04-10T06:50:12.126Z,90.83
2023-04-10T06:52:40.252Z,91.02
2023-04-10T06:55:09.069Z,90.66
2023-04-10T06:57:37.144Z,89.01
2023-04-10T07:00:05.639Z,88.54
2023-04-10T07:02:33.676Z,88.30
2023-04-10T07:05:02.047Z,89.13
2023-04-10T07:07:31.570Z,88.20
2023-04-10T07:09:59.551Z,87.50
2023-04-10T07:12:27.548Z,86.36
2023-04-10T07:14:55.696Z,85.50
2023-04-10T07:17:23.746Z,86.26
2023-04-10T07:19:51.837Z,87.98
2023-04-10T07:22:19.894Z,87.93
2023-04-10T07:24:49.744Z,87.23
2023-04-10T07:27:18.061Z,87.13
2023-04-10T07:29:46.482Z,87.74
2023-04-10T07:32:14.546Z,87.01
2023-04-10T07:34:43.267Z,86.66
2023-04-10T07:37:11.624Z,86.42
2023-04-10T07:39:39.577Z,84.89
2023-04-10T07:42:08.966Z,81.00
2023-04-10T07:44:37.077Z,80.18
2023-04-10T07:47:05.316Z,80.51
2023-04-10T07:49:33.397Z,78.90
2023-04-10T07:52:01.781Z,78.59
2023-04-10T07:54:32.712Z,79.19
2023-04-10T07:57:00.647Z,79.72
2023-04-10T07:59:29.971Z,79.86
2023-04-10T08:01:58.053Z,79.33
2023-04-10T08:04:26.884Z,79.18
2023-04-10T08:06:55.904Z,80.93
2023-04-10T08:09:23.914Z,81.98
2023-04-10T08:11:52.081Z,82.48
2023-04-10T08:14:20.076Z,82.65
2023-04-10T08:16:49.455Z,82.04
2023-04-10T08:19:17.512Z,82.03
2023-04-10T08:21:45.537Z,82.53
2023-04-10T08:24:15.503Z,81.97
2023-04-10T08:26:44.098Z,81.97
2023-04-10T08:29:13.552Z,81.41
2023-04-10T08:31:42.189Z,81.53
2023-04-10T08:34:12.816Z,80.49
2023-04-10T08:36:41.325Z,80.98
2023-04-10T08:39:09.292Z,79.83
2023-04-10T08:41:37.646Z,80.64
2023-04-10T08:44:06.263Z,78.77
2023-04-10T08:46:38.393Z,78.63
2023-04-10T08:49:07.529Z,77.37
2023-04-10T08:51:40.583Z,78.14
2023-04-10T08:54:13.845Z,77.85
2023-04-10T08:56:47.297Z,76.38
2023-04-10T08:59:17.600Z,75.66
2023-04-10T09:01:47.093Z,73.52
2023-04-10T09:04:18.448Z,73.49
2023-04-10T09:06:48.873Z,71.52
2023-04-10T09:09:18.207Z,71.34
2023-04-10T09:12:11.296Z,68.79
2023-04-10T09:14:39.592Z,68.79
2023-04-10T09:17:18.707Z,69.25
2023-04-10T09:19:49.705Z,71.27
2023-04-10T09:22:19.374Z,70.74
2023-04-10T09:24:48.613Z,69.48
2023-04-10T09:27:33.773Z,70.32
2023-04-10T09:30:02.423Z,71.98
2023-04-10T09:32:41.559Z,72.67
2023-04-10T09:35:10.958Z,72.38
2023-04-10T09:37:42.386Z,71.35
2023-04-10T09:40:21.961Z,69.87
2023-04-10T09:42:49.934Z,69.14
2023-04-10T09:45:20.630Z,70.15
2023-04-10T09:48:03.574Z,69.79
2023-04-10T09:50:39.642Z,70.77
2023-04-10T09:53:15.864Z,70.70
2023-04-10T09:58:30.445Z,69.58
2023-04-10T10:00:58.715Z,68.38
2023-04-10T10:03:29.712Z,66.30
2023-04-10T10:05:58.679Z,64.98
2023-04-10T10:08:33.927Z,64.11
2023-04-10T10:11:10.674Z,64.38
2023-04-10T10:13:48.305Z,64.51
2023-04-10T10:16:21.034Z,63.33
2023-04-10T10:18:56.480Z,65.48
2023-04-10T10:21:26.693Z,64.39
2023-04-10T10:23:58.119Z,64.45
2023-04-10T10:26:27.165Z,64.92
2023-04-10T10:28:56.835Z,65.91
2023-04-10T10:31:28.131Z,65.00
2023-04-10T10:33:57.190Z,66.20
2023-04-10T10:36:26.214Z,66.43
2023-04-10T10:39:05.992Z,66.77
2023-04-10T10:41:41.997Z,67.38
2023-04-10T10:44:15.996Z,66.54
2023-04-10T10:46:48.389Z,65.76
2023-04-10T10:49:16.597Z,66.40
2023-04-10T10:51:46.627Z,65.12
2023-04-10T10:54:33.181Z,66.25
2023-04-10T10:57:01.460Z,65.09
2023-04-10T10:59:57.852Z,63.82
2023-04-10T11:02:26.708Z,63.54
2023-04-10T11:04:54.794Z,63.29
2023-04-10T11:07:23.155Z,58.73
2023-04-10T11:09:54.587Z,54.44
2023-04-10T11:12:24.689Z,54.05
2023-04-10T11:15:00.395Z,52.00
2023-04-10T11:17:51.559Z,55.77
2023-04-10T11:20:22.299Z,57.52
2023-04-10T11:23:13.417Z,59.01
2023-04-10T11:25:50.422Z,59.44
2023-04-10T11:28:38.260Z,59.63
2023-04-10T11:31:19.633Z,60.05
2023-04-10T11:33:51.002Z,60.44
2023-04-10T11:36:19.299Z,62.04
2023-04-10T11:38:57.865Z,59.65
2023-04-10T11:41:32.276Z,60.93
2023-04-10T11:44:01.570Z,61.13
2023-04-10T11:46:30.196Z,59.50
2023-04-10T11:49:01.855Z,58.31
2023-04-10T11:51:31.176Z,58.65
2023-04-10T11:54:07.208Z,59.40
2023-04-10T11:56:37.606Z,60.76
2023-04-10T11:59:09.777Z,61.98
2023-04-10T12:01:39.877Z,64.29
2023-04-10T12:04:15.664Z,65.86
2023-04-10T12:06:46.206Z,66.67
2023-04-10T12:09:15.968Z,66.57
2023-04-10T12:11:53.053Z,66.94
2023-04-10T12:14:22.226Z,71.32
2023-04-10T12:16:50.700Z,97.07
2023-04-10T12:19:19.533Z,100.00
2023-04-10T12:21:47.883Z,100.00
2023-04-10T12:24:42.291Z,100.00
2023-04-10T12:27:17.627Z,100.00
2023-04-10T12:29:46.097Z,100.00
2023-04-10T12:32:14.958Z,100.00
2023-04-10T12:34:43.943Z,100.00
2023-04-10T12:37:12.251Z,100.00
2023-04-10T12:39:41.697Z,100.00
2023-04-10T12:42:16.792Z,100.00
2023-04-10T12:44:58.865Z,100.00
2023-04-10T12:47:28.147Z,100.00
2023-04-10T12:50:08.050Z,100.00
2023-04-10T12:52:37.811Z,100.00
2023-04-10T12:55:14.649Z,100.00
2023-04-10T12:57:47.952Z,100.00
2023-04-10T13:00:18.580Z,100.00
2023-04-10T13:02:47.855Z,100.00
2023-04-10T13:05:17.668Z,100.00
2023-04-10T13:07:45.812Z,100.00
2023-04-10T13:10:13.776Z,100.00
2023-04-10T13:12:44.745Z,100.00
2023-04-10T13:15:12.948Z,100.00
2023-04-10T13:17:45.735Z,100.00
2023-04-10T13:20:17.231Z,100.00
2023-04-10T13:22:48.428Z,100.00
2023-04-10T13:25:17.531Z,100.00
2023-04-10T13:27:51.456Z,100.00
2023-04-10T13:30:19.505Z,100.00
2023-04-10T13:32:48.292Z,100.00
2023-04-10T13:35:17.804Z,100.00
2023-04-10T13:37:47.630Z,100.00
2023-04-10T13:40:16.675Z,100.00
2023-04-10T13:45:35.001Z,100.00
2023-04-10T13:48:04.129Z,100.00
2023-04-10T13:50:39.517Z,100.00
2023-04-10T13:53:10.619Z,100.00
2023-04-10T13:55:43.881Z,100.00
2023-04-10T14:01:04.848Z,100.00
2023-04-10T14:03:32.902Z,100.00
2023-04-10T14:06:01.941Z,100.00
2023-04-10T14:08:32.076Z,100.00
2023-04-10T14:11:00.427Z,100.00
2023-04-10T14:13:30.847Z,100.00
2023-04-10T14:16:04.104Z,100.00
2023-04-10T14:18:32.972Z,100.00
2023-04-10T14:21:01.530Z,100.00
2023-04-10T14:23:31.812Z,100.00
2023-04-10T14:26:00.489Z,100.00
2023-04-10T14:28:29.841Z,100.00
2023-04-10T14:30:58.364Z,100.00
2023-04-10T14:33:27.495Z,100.00
2023-04-10T14:35:55.743Z,100.00
2023-04-10T14:38:25.285Z,100.00
2023-04-10T14:40:54.167Z,100.00
2023-04-10T14:43:22.312Z,100.00
2023-04-10T14:45:51.679Z,100.00
2023-04-10T14:48:19.999Z,100.00
2023-04-10T14:50:49.343Z,100.00
2023-04-10T14:53:18.503Z,100.00
2023-04-10T14:55:46.464Z,100.00
2023-04-10T14:58:14.758Z,100.00
2023-04-10T15:00:43.978Z,100.00
2023-04-10T15:03:13.506Z,100.00
2023-04-10T15:05:42.365Z,100.00
2023-04-10T15:08:10.427Z,100.00
2023-04-10T15:10:38.356Z,100.00
2023-04-10T15:13:06.634Z,100.00
2023-04-10T15:15:34.642Z,100.00
2023-04-10T15:18:02.752Z,100.00
2023-04-10T15:20:39.585Z,100.00
2023-04-10T15:23:13.506Z,100.00
2023-04-10T15:25:50.531Z,100.00
2023-04-10T15:28:23.827Z,100.00
2023-04-10T15:30:54.309Z,100.00
2023-04-10T15:33:23.061Z,100.00
2023-04-10T15:35:52.876Z,100.00
2023-04-10T15:38:21.364Z,100.00
2023-04-10T15:40:49.710Z,100.00
2023-04-10T15:43:18.276Z,100.00
2023-04-10T15:45:46.637Z,100.00
2023-04-10T15:48:14.938Z,100.00
2023-04-10T15:50:43.275Z,100.00
2023-04-10T15:53:12.622Z,100.00
2023-04-10T15:55:41.247Z,100.00
2023-04-10T15:58:09.186Z,100.00
2023-04-10T16:00:37.218Z,100.00
2023-04-10T16:03:05.911Z,100.00
2023-04-10T16:05:34.091Z,100.00
2023-04-10T16:08:03.668Z,100.00
2023-04-10T16:10:33.192Z,100.00
2023-04-10T16:13:04.418Z,100.00
2023-04-10T16:15:35.481Z,100.00
2023-04-10T16:18:04.647Z,100.00
2023-04-10T16:20:32.868Z,100.00
2023-04-10T16:23:01.356Z,100.00
2023-04-10T16:25:30.791Z,100.00
2023-04-10T16:28:00.123Z,100.00
2023-04-10T16:30:28.093Z,100.00
2023-04-10T16:32:56.060Z,100.00
2023-04-10T16:35:24.288Z,100.00
2023-04-10T16:37:52.530Z,100.00
2023-04-10T16:40:20.692Z,100.00
2023-04-10T16:42:48.732Z,100.00
2023-04-10T16:45:18.357Z,100.00
2023-04-10T16:47:46.379Z,100.00
2023-04-10T16:50:14.448Z,100.00
2023-04-10T16:52:42.512Z,100.00
2023-04-10T16:55:10.580Z,100.00
2023-04-10T16:57:38.560Z,100.00
2023-04-10T17:00:07.876Z,100.00
2023-04-10T17:02:37.435Z,100.00
2023-04-10T17:05:05.637Z,100.00
2023-04-10T17:07:33.856Z,100.00
2023-04-10T17:10:01.889Z,100.00
2023-04-10T17:12:30.273Z,100.00
2023-04-10T17:14:58.238Z,100.00
2023-04-10T17:17:26.439Z,100.00
2023-04-10T17:19:55.954Z,100.00
2023-04-10T17:22:24.041Z,100.00
2023-04-10T17:24:52.253Z,100.00
2023-04-10T17:27:20.370Z,100.00
2023-04-10T17:29:48.624Z,100.00
2023-04-10T17:32:16.738Z,100.00
2023-04-10T17:34:44.791Z,100.00
2023-04-10T17:37:14.147Z,100.00
2023-04-10T17:39:42.129Z,100.00
2023-04-10T17:42:10.076Z,100.00
2023-04-10T17:44:38.093Z,100.00
2023-04-10T17:47:06.938Z,100.00
2023-04-10T17:49:35.053Z,100.00
2023-04-10T17:52:03.108Z,100.00
2023-04-10T17:54:32.443Z,100.00
2023-04-10T17:57:01.559Z,100.00
2023-04-10T17:59:32.064Z,100.00
2023-04-10T18:02:00.169Z,100.00
2023-04-10T18:04:28.296Z,100.00
2023-04-10T18:06:56.218Z,100.00
2023-04-10T18:09:24.217Z,100.00
2023-04-10T18:11:53.519Z,100.00
2023-04-10T18:14:21.708Z,100.00
2023-04-10T18:16:50.385Z,100.00
2023-04-10T18:19:18.526Z,100.00
2023-04-10T18:21:46.802Z,100.00
2023-04-10T18:24:15.203Z,100.00
2023-04-10T18:26:45.245Z,100.00
2023-04-10T18:29:14.775Z,100.00
2023-04-10T18:31:42.743Z,100.00
2023-04-10T18:34:10.929Z,100.00
2023-04-10T18:36:39.255Z,100.00
2023-04-10T18:39:07.344Z,100.00
2023-04-10T18:41:35.506Z,100.00
2023-04-10T18:44:05.359Z,100.00
2023-04-10T18:46:35.503Z,100.00
2023-04-10T18:49:03.761Z,100.00
2023-04-10T18:51:35.006Z,100.00
2023-04-10T18:54:03.457Z,100.00
2023-04-10T18:56:31.580Z,100.00
2023-04-10T18:58:59.557Z,100.00
2023-04-10T19:01:28.320Z,100.00
2023-04-10T19:03:58.138Z,100.00
2023-04-10T19:06:27.959Z,100.00
2023-04-10T19:08:56.751Z,100.00
2023-04-10T19:11:24.958Z,100.00
2023-04-10T19:13:53.255Z,100.00
2023-04-10T19:16:21.595Z,100.00
2023-04-10T19:18:50.015Z,100.00
2023-04-10T19:21:19.355Z,100.00
2023-04-10T19:23:47.856Z,100.00
2023-04-10T19:26:16.016Z,100.00
2023-04-10T19:28:44.128Z,100.00
2023-04-10T19:31:12.600Z,100.00
2023-04-10T19:33:41.388Z,100.00
2023-04-10T19:36:09.878Z,100.00
2023-04-10T19:38:41.094Z,100.00
2023-04-10T19:41:16.418Z,100.00
2023-04-10T19:43:44.847Z,100.00
2023-04-10T19:46:19.187Z,100.00
2023-04-10T19:48:47.673Z,100.00
2023-04-10T19:51:15.860Z,100.00
2023-04-10T19:53:45.445Z,100.00
2023-04-10T19:56:13.442Z,100.00
2023-04-10T19:58:56.254Z,100.00
2023-04-10T20:01:24.642Z,100.00
2023-04-10T20:03:52.890Z,100.00
2023-04-10T20:06:22.095Z,100.00
2023-04-10T20:08:51.843Z,100.00
2023-04-10T20:11:19.979Z,100.00
2023-04-10T20:13:49.138Z,100.00
2023-04-10T20:16:17.151Z,100.00
2023-04-10T20:18:45.148Z,100.00
2023-04-10T20:21:13.081Z,100.00
2023-04-10T20:23:41.273Z,100.00
2023-04-10T20:26:12.313Z,100.00
2023-04-10T20:28:40.471Z,100.00
2023-04-10T20:31:10.715Z,100.00
2023-04-10T20:33:38.751Z,100.00
2023-04-10T20:36:07.855Z,100.00
2023-04-10T20:38:35.835Z,100.00
2023-04-10T20:41:03.886Z,100.00
2023-04-10T20:43:33.317Z,100.00
2023-04-10T20:46:04.445Z,100.00
2023-04-10T20:48:32.394Z,100.00
2023-04-10T20:51:00.742Z,100.00
2023-04-10T20:53:29.155Z,100.00
2023-04-10T20:55:58.087Z,100.00
2023-04-10T20:58:26.251Z,100.00
2023-04-10T21:00:56.773Z,100.00
2023-04-10T21:03:24.953Z,100.00
2023-04-10T21:05:53.974Z,100.00
2023-04-10T21:08:22.171Z,100.00
2023-04-10T21:10:51.464Z,100.00
2023-04-10T21:13:21.782Z,100.00
2023-04-10T21:15:50.162Z,100.00
2023-04-10T21:18:20.308Z,100.00
2023-04-10T21:20:54.508Z,100.00
2023-04-10T21:23:22.789Z,100.00
2023-04-10T21:25:52.983Z,100.00
2023-04-10T21:28:20.984Z,100.00
2023-04-10T21:30:48.874Z,100.00
2023-04-10T21:33:19.202Z,100.00
2023-04-10T21:35:49.032Z,100.00
2023-04-10T21:38:16.981Z,100.00
2023-04-10T21:40:52.108Z,100.00
2023-04-10T21:43:20.504Z,100.00
2023-04-10T21:45:48.617Z,100.00
2023-04-10T21:48:16.816Z,100.00
2023-04-10T21:50:44.784Z,100.00
2023-04-10T21:53:14.393Z,100.00
2023-04-10T21:55:42.377Z,100.00
2023-04-10T21:58:10.351Z,100.00
2023-04-10T22:00:38.607Z,100.00
2023-04-10T22:03:07.673Z,100.00
2023-04-10T22:05:35.727Z,100.00
2023-04-10T22:08:03.728Z,100.00
2023-04-10T22:10:33.107Z,100.00
2023-04-10T22:13:01.086Z,100.00
2023-04-10T22:15:29.215Z,100.00
2023-04-10T22:17:57.209Z,100.00
2023-04-10T22:20:25.201Z,100.00
2023-04-10T22:22:53.317Z,100.00
2023-04-10T22:25:21.309Z,100.00
2023-04-10T22:27:50.848Z,100.00
2023-04-10T22:30:19.098Z,100.00
2023-04-10T22:32:47.093Z,100.00
2023-04-10T22:35:15.061Z,100.00
2023-04-10T22:37:44.636Z,100.00
2023-04-10T22:40:12.751Z,100.00
2023-04-10T22:42:41.113Z,100.00
2023-04-10T22:45:11.572Z,100.00
2023-04-10T22:47:39.497Z,100.00
2023-04-10T22:50:08.610Z,100.00
2023-04-10T22:52:36.509Z,100.00
2023-04-10T22:55:06.833Z,100.00
2023-04-10T22:57:34.880Z,100.00
2023-04-10T23:00:02.797Z,100.00
2023-04-10T23:02:32.358Z,100.00
2023-04-10T23:05:00.365Z,100.00
2023-04-10T23:07:28.311Z,100.00
2023-04-10T23:09:56.210Z,100.00
2023-04-10T23:12:24.481Z,100.00
2023-04-10T23:14:52.408Z,100.00
2023-04-10T23:17:21.177Z,100.00
2023-04-10T23:19:50.534Z,100.00
2023-04-10T23:22:18.471Z,100.00
2023-04-10T23:24:46.838Z,100.00
2023-04-10T23:27:14.772Z,100.00
2023-04-10T23:29:42.715Z,100.00
2023-04-10T23:32:10.707Z,100.00
2023-04-10T23:34:38.659Z,100.00
2023-04-10T23:37:08.027Z,100.00
2023-04-10T23:39:35.934Z,100.00
2023-04-10T23:42:04.133Z,100.00
2023-04-10T23:44:32.279Z,100.00
2023-04-10T23:47:00.326Z,100.00
2023-04-10T23:49:28.311Z,100.00
2023-04-10T23:51:56.349Z,100.00
2023-04-10T23:54:25.683Z,100.00
2023-04-10T23:56:53.738Z,100.00
2023-04-10T23:59:21.679Z,100.00
